createdAt,value
2018-12-10T00:00:24.851Z,4.855347
2018-12-10T00:03:52.709Z,5.006409
2018-12-10T00:07:20.575Z,5.137329
2018-12-10T00:10:48.450Z,5.1474
2018-12-10T00:14:16.417Z,5.207825
2018-12-10T00:17:44.278Z,5.298462
2018-12-10T00:21:12.150Z,5.318604
2018-12-10T00:24:40.021Z,5.358887
2018-12-10T00:28:08.865Z,5.328674
2018-12-10T00:31:36.746Z,5.288391
2018-12-10T00:35:04.624Z,5.248108
2018-12-10T00:38:33.468Z,5.238037
2018-12-10T00:42:02.330Z,5.248108
2018-12-10T00:45:30.187Z,5.248108
2018-12-10T00:48:58.035Z,5.238037
2018-12-10T00:52:25.869Z,5.177612
2018-12-10T00:55:53.728Z,5.036621
2018-12-10T00:59:21.577Z,4.935913
2018-12-10T01:02:49.416Z,4.885559
2018-12-10T01:06:17.264Z,4.875488
2018-12-10T01:09:45.112Z,4.905701
2018-12-10T01:13:12.952Z,4.794922
2018-12-10T01:16:40.796Z,4.77478
2018-12-10T01:20:08.645Z,4.855347
2018-12-10T01:23:36.493Z,4.825134
2018-12-10T01:27:04.333Z,4.77478
2018-12-10T01:30:32.182Z,4.714355
2018-12-10T01:34:00.037Z,4.603577
2018-12-10T01:37:27.867Z,4.573364
2018-12-10T01:40:55.715Z,4.533081
2018-12-10T01:44:23.575Z,4.462585
2018-12-10T01:47:51.965Z,4.482727
2018-12-10T01:51:19.822Z,4.613647
2018-12-10T01:54:47.665Z,4.603577
2018-12-10T01:58:15.504Z,4.533081
2018-12-10T02:01:43.358Z,4.64386
2018-12-10T02:05:11.208Z,4.633789
2018-12-10T02:08:39.038Z,4.694214
2018-12-10T02:12:06.899Z,4.664001
2018-12-10T02:15:35.742Z,4.794922
2018-12-10T02:19:03.585Z,4.784851
2018-12-10T02:22:31.436Z,4.784851
2018-12-10T02:25:59.288Z,4.77478
2018-12-10T02:29:28.042Z,4.754639
2018-12-10T02:32:55.900Z,4.784851
2018-12-10T02:36:23.748Z,4.794922
2018-12-10T02:39:52.592Z,4.794922
2018-12-10T02:43:20.432Z,4.825134
2018-12-10T02:46:48.282Z,4.845276
2018-12-10T02:50:16.133Z,4.875488
2018-12-10T02:53:43.969Z,4.956055
2018-12-10T02:57:11.819Z,5.006409
2018-12-10T03:00:40.654Z,5.036621
2018-12-10T03:04:08.490Z,5.086975
2018-12-10T03:07:36.340Z,5.107117
2018-12-10T03:11:04.189Z,5.137329
2018-12-10T03:14:32.022Z,5.1474
2018-12-10T03:17:59.870Z,5.137329
2018-12-10T03:21:27.714Z,5.137329
2018-12-10T03:24:55.561Z,5.187683
2018-12-10T03:28:23.394Z,5.1474
2018-12-10T03:31:52.237Z,5.177612
2018-12-10T03:35:20.087Z,5.187683
2018-12-10T03:38:47.920Z,5.177612
2018-12-10T03:42:15.855Z,5.117188
2018-12-10T03:45:43.707Z,5.1474
2018-12-10T03:49:13.534Z,5.157471
2018-12-10T03:52:41.387Z,5.107117
2018-12-10T03:56:09.239Z,5.107117
2018-12-10T03:59:37.076Z,5.1474
2018-12-10T04:03:04.932Z,5.288391
2018-12-10T04:06:32.780Z,5.338745
2018-12-10T04:10:00.639Z,5.26825
2018-12-10T04:13:28.480Z,5.207825
2018-12-10T04:16:56.333Z,5.137329
2018-12-10T04:20:24.181Z,5.117188
2018-12-10T04:23:52.018Z,5.086975
2018-12-10T04:27:19.875Z,5.107117
2018-12-10T04:30:47.721Z,5.1474
2018-12-10T04:34:15.555Z,5.207825
2018-12-10T04:37:43.397Z,5.288391
2018-12-10T04:41:11.249Z,5.328674
2018-12-10T04:44:39.099Z,5.328674
2018-12-10T04:48:06.940Z,5.328674
2018-12-10T04:51:34.862Z,5.358887
2018-12-10T04:55:02.696Z,5.389099
2018-12-10T04:58:30.661Z,5.409241
2018-12-10T05:01:58.507Z,5.389099
2018-12-10T05:05:26.361Z,5.358887
2018-12-10T05:08:54.422Z,5.338745
2018-12-10T05:12:22.276Z,5.358887
2018-12-10T05:15:51.116Z,5.358887
2018-12-10T05:19:18.954Z,5.338745
2018-12-10T05:22:46.801Z,5.328674
2018-12-10T05:26:14.661Z,5.26825
2018-12-10T05:29:42.492Z,5.298462
2018-12-10T05:33:10.419Z,5.26825
2018-12-10T05:36:38.269Z,5.207825
2018-12-10T05:40:06.234Z,5.177612
2018-12-10T05:43:35.068Z,5.137329
2018-12-10T05:47:02.919Z,5.117188
2018-12-10T05:50:30.777Z,5.107117
2018-12-10T05:53:58.603Z,5.066833
2018-12-10T05:57:26.451Z,5.086975
2018-12-10T06:00:55.295Z,5.107117
2018-12-10T06:04:23.128Z,5.066833
2018-12-10T06:07:50.985Z,5.086975
2018-12-10T06:11:18.825Z,5.137329
2018-12-10T06:14:46.663Z,5.187683
2018-12-10T06:18:14.514Z,5.217896
2018-12-10T06:21:42.373Z,5.238037
2018-12-10T06:25:10.210Z,5.26825
2018-12-10T06:28:38.059Z,5.26825
2018-12-10T06:32:07.897Z,5.217896
2018-12-10T06:35:35.749Z,5.248108
2018-12-10T06:39:03.582Z,5.248108
2018-12-10T06:42:31.434Z,5.217896
2018-12-10T06:45:59.281Z,5.217896
2018-12-10T06:49:27.239Z,5.288391
2018-12-10T06:52:55.071Z,5.288391
2018-12-10T06:56:22.922Z,5.318604
2018-12-10T06:59:50.772Z,5.39917
2018-12-10T07:03:18.607Z,5.409241
2018-12-10T07:06:46.456Z,5.39917
2018-12-10T07:10:14.313Z,5.409241
2018-12-10T07:13:42.145Z,5.39917
2018-12-10T07:17:09.992Z,5.409241
2018-12-10T07:20:37.842Z,5.39917
2018-12-10T07:24:05.674Z,5.439453
2018-12-10T07:27:33.522Z,5.409241
2018-12-10T07:31:02.367Z,5.439453
2018-12-10T07:34:30.221Z,5.469666
2018-12-10T07:37:59.263Z,5.439453
2018-12-10T07:41:27.123Z,5.469666
2018-12-10T07:44:54.973Z,5.479736
2018-12-10T07:48:22.804Z,5.479736
2018-12-10T07:51:51.391Z,5.499878
2018-12-10T07:55:19.237Z,5.469666
2018-12-10T07:58:47.075Z,5.479736
2018-12-10T08:02:14.926Z,5.479736
2018-12-10T08:05:43.770Z,5.499878
2018-12-10T08:09:11.620Z,5.479736
2018-12-10T08:12:39.458Z,5.439453
2018-12-10T08:16:07.309Z,5.469666
2018-12-10T08:19:35.158Z,5.509949
2018-12-10T08:23:03.985Z,5.540161
2018-12-10T08:26:31.839Z,5.540161
2018-12-10T08:29:59.696Z,5.52002
2018-12-10T08:33:27.537Z,5.540161
2018-12-10T08:36:55.683Z,5.550232
2018-12-10T08:40:23.443Z,5.570374
2018-12-10T08:43:52.205Z,5.550232
2018-12-10T08:47:20.059Z,5.570374
2018-12-10T08:50:47.911Z,5.580444
2018-12-10T08:54:15.749Z,5.590515
2018-12-10T08:57:43.604Z,5.610657
2018-12-10T09:01:11.583Z,5.620728
2018-12-10T09:04:39.294Z,5.65094
2018-12-10T09:08:08.156Z,5.65094
2018-12-10T09:11:36.009Z,5.671082
2018-12-10T09:15:03.860Z,5.721436
2018-12-10T09:18:32.702Z,5.721436
2018-12-10T09:22:00.542Z,5.721436
2018-12-10T09:25:29.096Z,5.701294
2018-12-10T09:28:56.937Z,5.731506
2018-12-10T09:32:24.789Z,5.721436
2018-12-10T09:35:52.644Z,5.731506
2018-12-10T09:39:20.486Z,5.761719
2018-12-10T09:42:48.330Z,5.731506
2018-12-10T09:46:16.178Z,5.751648
2018-12-10T09:49:47.980Z,5.731506
2018-12-10T09:53:15.844Z,5.761719
2018-12-10T09:56:43.696Z,5.77179
2018-12-10T10:00:11.555Z,5.802002
2018-12-10T10:03:40.189Z,5.761719
2018-12-10T10:07:08.031Z,5.761719
2018-12-10T10:10:36.594Z,5.802002
2018-12-10T10:14:04.430Z,5.842285
2018-12-10T10:17:32.287Z,5.872498
2018-12-10T10:21:00.142Z,5.932922
2018-12-10T10:24:29.963Z,5.932922
2018-12-10T10:27:57.831Z,5.942993
2018-12-10T10:31:25.686Z,5.973206
2018-12-10T10:34:54.527Z,5.983276
2018-12-10T10:38:22.367Z,5.942993
2018-12-10T10:41:50.218Z,5.953064
2018-12-10T10:45:20.055Z,6.02356
2018-12-10T10:48:52.664Z,6.134338
2018-12-10T10:52:20.516Z,6.124268
2018-12-10T10:55:50.350Z,6.083984
2018-12-10T10:59:19.184Z,6.02356
2018-12-10T11:02:47.038Z,6.03363
2018-12-10T11:06:14.930Z,6.053772
2018-12-10T11:09:42.730Z,6.03363
2018-12-10T11:13:10.581Z,5.983276
2018-12-10T11:16:38.430Z,5.983276
2018-12-10T11:20:06.268Z,5.973206
2018-12-10T11:23:34.118Z,6.003418
2018-12-10T11:27:01.963Z,5.983276
2018-12-10T11:30:29.812Z,5.953064
2018-12-10T11:33:57.647Z,5.953064
2018-12-10T11:37:25.498Z,5.932922
2018-12-10T11:40:53.356Z,5.953064
2018-12-10T11:44:22.191Z,5.973206
2018-12-10T11:47:50.052Z,5.932922
2018-12-10T11:51:17.907Z,5.932922
2018-12-10T11:54:46.598Z,5.912781
2018-12-10T11:58:14.447Z,5.912781
2018-12-10T12:01:42.300Z,5.942993
2018-12-10T12:05:10.137Z,5.90271
2018-12-10T12:08:37.988Z,5.872498
2018-12-10T12:12:06.514Z,5.90271
2018-12-10T12:15:35.340Z,5.932922
2018-12-10T12:19:11.031Z,5.882568
2018-12-10T12:22:35.015Z,5.842285
2018-12-10T12:26:02.868Z,5.791931
2018-12-10T12:29:30.707Z,5.731506
2018-12-10T12:33:00.648Z,5.731506
2018-12-10T12:36:28.504Z,5.701294
2018-12-10T12:39:57.334Z,5.721436
2018-12-10T12:43:25.185Z,5.731506
2018-12-10T12:46:53.040Z,5.721436
2018-12-10T12:50:20.881Z,5.701294
2018-12-10T12:53:49.373Z,5.671082
2018-12-10T12:57:17.350Z,5.671082
2018-12-10T13:00:45.903Z,5.701294
2018-12-10T13:04:13.762Z,5.791931
2018-12-10T13:07:43.546Z,5.791931
2018-12-10T13:11:11.444Z,5.822144
2018-12-10T13:14:39.288Z,5.761719
2018-12-10T13:18:07.151Z,5.701294
2018-12-10T13:21:35.004Z,5.65094
2018-12-10T13:25:02.839Z,5.580444
2018-12-10T13:28:30.692Z,5.570374
2018-12-10T13:31:59.427Z,5.52002
2018-12-10T13:35:27.389Z,5.550232
2018-12-10T13:38:56.212Z,5.52002
2018-12-10T13:42:24.066Z,5.52002
2018-12-10T13:45:52.921Z,5.52002
2018-12-10T13:49:20.745Z,5.550232
2018-12-10T13:52:48.599Z,5.580444
2018-12-10T13:56:17.468Z,5.570374
2018-12-10T13:59:47.884Z,5.590515
2018-12-10T14:03:16.449Z,5.620728
2018-12-10T14:06:45.358Z,5.671082
2018-12-10T14:10:13.383Z,5.661011
2018-12-10T14:13:41.276Z,5.610657
2018-12-10T14:17:10.949Z,5.580444
2018-12-10T14:20:42.052Z,5.610657
2018-12-10T14:24:09.921Z,5.590515
2018-12-10T14:27:39.396Z,5.550232
2018-12-10T14:31:07.319Z,5.550232
2018-12-10T14:34:39.898Z,5.499878
2018-12-10T14:38:07.777Z,5.479736
2018-12-10T14:41:35.650Z,5.479736
2018-12-10T14:45:03.499Z,5.469666
2018-12-10T14:48:32.373Z,5.389099
2018-12-10T14:52:00.234Z,5.389099
2018-12-10T14:55:28.066Z,5.409241
2018-12-10T14:58:55.941Z,5.389099
2018-12-10T15:02:23.813Z,5.318604
2018-12-10T15:05:51.700Z,5.217896
2018-12-10T15:09:19.542Z,5.177612
2018-12-10T15:12:47.412Z,5.187683
2018-12-10T15:16:15.296Z,5.1474
2018-12-10T15:19:43.135Z,5.066833
2018-12-10T15:23:10.988Z,4.956055
2018-12-10T15:26:38.869Z,4.956055
2018-12-10T15:30:06.708Z,4.905701
2018-12-10T15:33:34.587Z,4.845276
2018-12-10T15:37:02.492Z,4.794922
2018-12-10T15:40:30.318Z,4.744568
2018-12-10T15:43:58.187Z,4.694214
2018-12-10T15:47:26.055Z,4.714355
2018-12-10T15:50:53.913Z,4.694214
2018-12-10T15:54:21.758Z,4.664001
2018-12-10T15:57:50.614Z,4.674072
2018-12-10T16:01:18.628Z,4.674072
2018-12-10T16:04:46.518Z,4.64386
2018-12-10T16:08:14.388Z,4.664001
2018-12-10T16:11:42.285Z,4.573364
2018-12-10T16:15:10.115Z,4.543152
2018-12-10T16:18:37.990Z,4.533081
2018-12-10T16:22:05.858Z,4.512939
2018-12-10T16:25:33.702Z,4.563293
2018-12-10T16:29:02.554Z,4.573364
2018-12-10T16:32:30.426Z,4.573364
2018-12-10T16:35:58.280Z,4.613647
2018-12-10T16:39:26.128Z,4.64386
2018-12-10T16:42:54.012Z,4.674072
2018-12-10T16:46:24.407Z,4.724426
2018-12-10T16:49:53.869Z,4.77478
2018-12-10T16:53:22.725Z,4.724426
2018-12-10T16:56:50.636Z,4.754639
2018-12-10T17:00:19.474Z,4.815063
2018-12-10T17:03:48.089Z,4.815063
2018-12-10T17:07:15.958Z,4.855347
2018-12-10T17:10:43.803Z,4.905701
2018-12-10T17:14:11.656Z,4.905701
2018-12-10T17:17:39.576Z,4.956055
2018-12-10T17:21:07.442Z,4.996338
2018-12-10T17:24:36.030Z,4.966125
2018-12-10T17:28:03.893Z,4.956055
2018-12-10T17:31:32.793Z,4.956055
2018-12-10T17:35:01.090Z,4.935913
2018-12-10T17:38:29.070Z,4.935913
2018-12-10T17:41:56.964Z,4.925842
2018-12-10T17:45:24.795Z,4.925842
2018-12-10T17:48:52.672Z,4.956055
2018-12-10T17:52:20.561Z,4.966125
2018-12-10T17:55:48.465Z,4.956055
2018-12-10T17:59:16.328Z,4.925842
2018-12-10T18:02:45.196Z,4.925842
2018-12-10T18:06:13.124Z,4.905701
2018-12-10T18:09:41.064Z,4.925842
2018-12-10T18:13:08.953Z,4.905701
2018-12-10T18:16:36.805Z,4.925842
2018-12-10T18:20:04.872Z,4.875488
2018-12-10T18:23:32.808Z,4.875488
2018-12-10T18:27:00.700Z,4.875488
2018-12-10T18:30:28.577Z,4.815063
2018-12-10T18:33:56.439Z,4.815063
2018-12-10T18:37:24.305Z,4.825134
2018-12-10T18:40:52.170Z,4.784851
2018-12-10T18:44:20.060Z,4.77478
2018-12-10T18:47:47.935Z,4.744568
2018-12-10T18:51:15.820Z,4.724426
2018-12-10T18:54:43.699Z,4.744568
2018-12-10T18:58:11.649Z,4.714355
2018-12-10T19:01:39.621Z,4.674072
2018-12-10T19:05:07.500Z,4.694214
2018-12-10T19:08:39.779Z,4.694214
2018-12-10T19:12:08.677Z,4.724426
2018-12-10T19:15:37.606Z,4.714355
2018-12-10T19:19:06.194Z,4.744568
2018-12-10T19:22:34.034Z,4.714355
2018-12-10T19:26:01.881Z,4.714355
2018-12-10T19:29:30.569Z,4.694214
2018-12-10T19:32:59.608Z,4.694214
2018-12-10T19:36:27.447Z,4.694214
2018-12-10T19:39:55.314Z,4.694214
2018-12-10T19:43:23.162Z,4.714355
2018-12-10T19:46:51.004Z,4.674072
2018-12-10T19:50:18.857Z,4.714355
2018-12-10T19:53:46.789Z,4.724426
2018-12-10T19:57:14.659Z,4.784851
2018-12-10T20:00:42.505Z,4.784851
2018-12-10T20:04:10.361Z,4.77478
2018-12-10T20:07:38.226Z,4.794922
2018-12-10T20:11:06.065Z,4.815063
2018-12-10T20:14:33.913Z,4.815063
2018-12-10T20:18:01.767Z,4.825134
2018-12-10T20:21:29.604Z,4.825134
2018-12-10T20:24:58.447Z,4.845276
2018-12-10T20:28:26.337Z,4.825134
2018-12-10T20:31:54.197Z,4.825134
2018-12-10T20:35:22.044Z,4.845276
2018-12-10T20:38:49.894Z,4.845276
2018-12-10T20:42:17.730Z,4.845276
2018-12-10T20:45:45.579Z,4.875488
2018-12-10T20:49:13.425Z,4.925842
2018-12-10T20:52:41.260Z,4.925842
2018-12-10T20:56:09.114Z,4.956055
2018-12-10T20:59:36.987Z,4.956055
2018-12-10T21:03:04.844Z,4.956055
2018-12-10T21:06:32.679Z,4.996338
2018-12-10T21:10:00.544Z,4.996338
2018-12-10T21:13:28.397Z,4.996338
2018-12-10T21:16:56.237Z,5.006409
2018-12-10T21:20:24.100Z,5.02655
2018-12-10T21:23:51.950Z,5.066833
2018-12-10T21:27:19.790Z,5.056763
2018-12-10T21:30:47.642Z,5.056763
2018-12-10T21:34:15.505Z,5.036621
2018-12-10T21:37:43.343Z,5.056763
2018-12-10T21:41:11.193Z,5.056763
2018-12-10T21:44:40.037Z,5.036621
2018-12-10T21:48:07.890Z,5.056763
2018-12-10T21:51:35.718Z,5.107117
2018-12-10T21:55:03.567Z,5.066833
2018-12-10T21:58:31.414Z,5.066833
2018-12-10T22:01:59.248Z,5.086975
2018-12-10T22:05:27.096Z,5.066833
2018-12-10T22:08:54.945Z,5.056763
2018-12-10T22:12:23.775Z,5.066833
2018-12-10T22:15:51.626Z,5.066833
2018-12-10T22:19:19.478Z,5.086975
2018-12-10T22:22:47.315Z,5.107117
2018-12-10T22:26:15.169Z,5.1474
2018-12-10T22:29:44.007Z,5.1474
2018-12-10T22:33:11.843Z,5.157471
2018-12-10T22:36:39.954Z,5.1474
2018-12-10T22:40:07.805Z,5.157471
2018-12-10T22:43:36.657Z,5.177612
2018-12-10T22:47:04.496Z,5.177612
2018-12-10T22:50:32.342Z,5.107117
2018-12-10T22:54:00.195Z,5.107117
2018-12-10T22:57:29.022Z,5.086975
2018-12-10T23:00:56.862Z,5.107117
2018-12-10T23:04:24.710Z,5.1474
2018-12-10T23:07:52.546Z,5.187683
2018-12-10T23:11:21.393Z,5.187683
2018-12-10T23:14:49.243Z,5.187683
2018-12-10T23:18:17.078Z,5.207825
2018-12-10T23:21:44.921Z,5.217896
2018-12-10T23:25:12.774Z,5.187683
2018-12-10T23:28:41.624Z,5.157471
2018-12-10T23:32:09.464Z,5.1474
2018-12-10T23:35:37.307Z,5.157471
2018-12-10T23:39:05.160Z,5.298462
2018-12-10T23:42:32.996Z,5.368958
2018-12-10T23:46:00.844Z,5.338745
2018-12-10T23:49:28.693Z,5.328674
2018-12-10T23:52:56.530Z,5.248108
2018-12-10T23:56:24.378Z,5.086975
2018-12-10T23:59:52.227Z,4.925842
